createdAt,value
2018-04-27T00:01:22.532Z,63.20
2018-04-27T00:03:57.786Z,63.50
2018-04-27T00:06:33.102Z,64.60
2018-04-27T00:09:08.378Z,64.90
2018-04-27T00:11:43.680Z,64.40
2018-04-27T00:14:18.957Z,65.20
2018-04-27T00:16:54.284Z,64.90
2018-04-27T00:19:30.313Z,63.60
2018-04-27T00:22:05.569Z,63.60
2018-04-27T00:24:40.831Z,64.80
2018-04-27T00:27:16.135Z,64.40
2018-04-27T00:29:51.220Z,65.00
2018-04-27T00:32:26.748Z,65.20
2018-04-27T00:35:03.077Z,66.10
2018-04-27T00:37:38.260Z,66.30
2018-04-27T00:40:13.489Z,66.90
2018-04-27T00:42:49.603Z,67.90
2018-04-27T00:45:25.609Z,68.90
2018-04-27T00:48:00.816Z,68.00
2018-04-27T00:50:35.980Z,68.70
2018-04-27T00:53:15.909Z,69.10
2018-04-27T00:55:51.239Z,68.50
2018-04-27T00:58:26.543Z,68.70
2018-04-27T01:01:01.752Z,69.70
2018-04-27T01:03:37.725Z,68.50
2018-04-27T01:06:12.781Z,68.50
2018-04-27T01:08:47.951Z,68.30
2018-04-27T01:11:23.295Z,68.90
2018-04-27T01:13:58.575Z,70.10
2018-04-27T01:16:33.894Z,70.00
2018-04-27T01:19:09.253Z,69.60
2018-04-27T01:21:44.567Z,69.00
2018-04-27T01:24:19.835Z,68.90
2018-04-27T01:26:55.171Z,69.20
2018-04-27T01:29:30.423Z,69.30
2018-04-27T01:32:06.438Z,71.20
2018-04-27T01:34:41.491Z,71.30
2018-04-27T01:37:16.750Z,71.90
2018-04-27T01:39:52.154Z,72.50
2018-04-27T01:42:28.050Z,73.10
2018-04-27T01:45:03.188Z,73.10
2018-04-27T01:47:38.452Z,73.50
2018-04-27T01:50:13.991Z,73.80
2018-04-27T01:52:49.146Z,72.80
2018-04-27T01:55:24.500Z,73.70
2018-04-27T01:57:59.789Z,74.10
2018-04-27T02:00:35.770Z,75.80
2018-04-27T02:03:11.770Z,75.40
2018-04-27T02:05:47.811Z,75.00
2018-04-27T02:08:23.067Z,75.00
2018-04-27T02:10:58.352Z,75.70
2018-04-27T02:13:34.366Z,75.40
2018-04-27T02:16:09.684Z,74.50
2018-04-27T02:18:44.845Z,74.60
2018-04-27T02:21:20.844Z,75.10
2018-04-27T02:23:56.152Z,75.00
2018-04-27T02:26:32.035Z,77.50
2018-04-27T02:29:07.891Z,78.60
2018-04-27T02:31:43.226Z,78.60
2018-04-27T02:34:18.895Z,78.00
2018-04-27T02:36:54.866Z,76.70
2018-04-27T02:39:30.168Z,76.70
2018-04-27T02:42:05.421Z,76.20
2018-04-27T02:44:40.634Z,76.20
2018-04-27T02:47:16.683Z,76.80
2018-04-27T02:49:51.955Z,76.80
2018-04-27T02:52:27.307Z,77.60
2018-04-27T02:55:02.629Z,77.60
2018-04-27T02:57:37.972Z,76.70
2018-04-27T03:00:13.497Z,76.40
2018-04-27T03:02:48.862Z,76.90
2018-04-27T03:05:25.985Z,76.40
2018-04-27T03:08:01.499Z,76.30
2018-04-27T03:10:36.844Z,78.00
2018-04-27T03:13:12.195Z,78.40
2018-04-27T03:15:47.523Z,78.90
2018-04-27T03:18:22.780Z,78.70
2018-04-27T03:20:58.111Z,79.50
2018-04-27T03:23:33.431Z,79.50
2018-04-27T03:26:08.698Z,79.50
2018-04-27T03:28:44.116Z,79.50
2018-04-27T03:31:19.547Z,80.20
2018-04-27T03:33:54.846Z,80.90
2018-04-27T03:36:30.937Z,81.10
2018-04-27T03:39:06.002Z,80.90
2018-04-27T03:41:41.323Z,80.80
2018-04-27T03:44:16.459Z,80.50
2018-04-27T03:46:51.794Z,80.30
2018-04-27T03:49:27.021Z,79.80
2018-04-27T03:52:02.375Z,80.50
2018-04-27T03:54:38.376Z,80.20
2018-04-27T03:57:13.709Z,80.30
2018-04-27T04:00:06.923Z,80.00
2018-04-27T04:03:00.690Z,79.40
2018-04-27T04:05:37.657Z,78.90
2018-04-27T04:08:12.763Z,79.00
2018-04-27T04:10:49.709Z,78.40
2018-04-27T04:13:25.685Z,78.20
2018-04-27T04:16:01.011Z,78.70
2018-04-27T04:18:36.379Z,77.30
2018-04-27T04:21:11.698Z,77.50
2018-04-27T04:23:47.055Z,77.60
2018-04-27T04:26:22.483Z,78.10
2018-04-27T04:28:57.760Z,78.70
2018-04-27T04:31:33.969Z,80.90
2018-04-27T04:34:09.847Z,80.00
2018-04-27T04:36:45.157Z,80.00
2018-04-27T04:39:21.033Z,80.20
2018-04-27T04:41:56.301Z,80.00
2018-04-27T04:44:31.545Z,79.60
2018-04-27T04:47:06.858Z,79.60
2018-04-27T04:49:43.025Z,79.20
2018-04-27T04:52:18.446Z,79.30
2018-04-27T04:54:53.761Z,79.20
2018-04-27T04:57:28.976Z,78.80
2018-04-27T05:00:04.142Z,79.00
2018-04-27T05:02:39.443Z,79.70
2018-04-27T05:05:14.774Z,79.60
2018-04-27T05:07:50.068Z,79.50
2018-04-27T05:10:25.276Z,78.90
2018-04-27T05:13:00.458Z,78.60
2018-04-27T05:15:35.754Z,77.20
2018-04-27T05:18:24.035Z,76.20
2018-04-27T05:21:01.988Z,75.90
2018-04-27T05:23:37.940Z,75.80
2018-04-27T05:26:13.313Z,76.00
2018-04-27T05:28:48.586Z,76.00
2018-04-27T05:31:26.669Z,74.70
2018-04-27T05:34:01.963Z,75.30
2018-04-27T05:36:37.329Z,72.70
2018-04-27T05:39:12.542Z,70.70
2018-04-27T05:41:47.868Z,70.20
2018-04-27T05:44:23.728Z,70.80
2018-04-27T05:46:59.689Z,68.20
2018-04-27T05:49:34.925Z,68.20
2018-04-27T05:52:10.252Z,66.20
2018-04-27T05:54:45.699Z,65.50
2018-04-27T05:57:20.871Z,65.40
2018-04-27T05:59:56.248Z,66.30
2018-04-27T06:02:31.538Z,66.40
2018-04-27T06:05:06.886Z,64.50
2018-04-27T06:07:42.255Z,63.90
2018-04-27T06:10:17.315Z,60.80
2018-04-27T06:12:52.622Z,58.90
2018-04-27T06:15:27.925Z,57.70
2018-04-27T06:18:03.271Z,56.80
2018-04-27T06:20:39.188Z,56.80
2018-04-27T06:23:14.608Z,56.80
2018-04-27T06:25:49.773Z,57.20
2018-04-27T06:28:24.930Z,56.60
2018-04-27T06:31:00.190Z,55.60
2018-04-27T06:33:35.388Z,55.60
2018-04-27T06:36:11.207Z,56.20
2018-04-27T06:38:46.458Z,56.90
2018-04-27T06:41:21.855Z,57.40
2018-04-27T06:43:57.163Z,58.40
2018-04-27T06:46:32.337Z,57.70
2018-04-27T06:49:07.684Z,56.90
2018-04-27T06:51:42.928Z,56.90
2018-04-27T06:54:18.911Z,57.50
2018-04-27T06:56:54.862Z,54.50
2018-04-27T06:59:30.224Z,54.50
2018-04-27T07:02:05.376Z,54.50
2018-04-27T07:04:40.648Z,52.00
2018-04-27T07:07:16.612Z,51.20
2018-04-27T07:09:52.170Z,51.20
2018-04-27T07:12:27.310Z,50.90
2018-04-27T07:15:02.651Z,50.50
2018-04-27T07:17:37.980Z,49.40
2018-04-27T07:20:13.081Z,48.90
2018-04-27T07:22:48.459Z,47.90
2018-04-27T07:25:23.810Z,46.80
2018-04-27T07:27:59.250Z,46.80
2018-04-27T07:30:35.270Z,47.30
2018-04-27T07:33:11.221Z,47.60
2018-04-27T07:35:46.593Z,47.60
2018-04-27T07:38:22.467Z,45.10
2018-04-27T07:40:58.515Z,43.60
2018-04-27T07:43:33.918Z,43.60
2018-04-27T07:46:09.828Z,42.50
2018-04-27T07:48:45.096Z,42.30
2018-04-27T07:51:20.918Z,42.60
2018-04-27T07:53:57.259Z,41.40
2018-04-27T07:56:33.595Z,39.10
2018-04-27T07:59:08.766Z,39.10
2018-04-27T08:01:44.177Z,39.90
2018-04-27T08:04:19.339Z,40.20
2018-04-27T08:06:54.603Z,40.50
2018-04-27T08:09:29.955Z,38.70
2018-04-27T08:12:05.887Z,38.10
2018-04-27T08:14:41.033Z,38.10
2018-04-27T08:17:16.528Z,37.90
2018-04-27T08:19:51.812Z,38.60
2018-04-27T08:22:27.162Z,38.00
2018-04-27T08:25:02.398Z,37.60
2018-04-27T08:27:38.513Z,36.00
2018-04-27T08:30:14.295Z,36.00
2018-04-27T08:32:49.443Z,37.30
2018-04-27T08:35:24.793Z,37.30
2018-04-27T08:38:00.235Z,36.60
2018-04-27T08:40:35.637Z,36.90
2018-04-27T08:43:10.819Z,36.50
2018-04-27T08:45:46.020Z,35.70
2018-04-27T08:48:21.182Z,34.90
2018-04-27T08:50:57.234Z,35.10
2018-04-27T08:53:33.204Z,36.10
2018-04-27T08:56:09.227Z,34.90
2018-04-27T08:58:44.483Z,34.90
2018-04-27T09:01:19.849Z,34.80
2018-04-27T09:03:55.167Z,33.70
2018-04-27T09:06:30.931Z,35.40
2018-04-27T09:09:06.893Z,30.40
2018-04-27T09:11:43.768Z,30.00
2018-04-27T09:14:19.040Z,30.00
2018-04-27T09:16:55.078Z,28.80
2018-04-27T09:19:30.210Z,28.80
2018-04-27T09:22:05.563Z,29.30
2018-04-27T09:24:40.863Z,29.90
2018-04-27T09:27:16.445Z,29.20
2018-04-27T09:29:51.692Z,30.40
2018-04-27T09:32:27.082Z,30.40
2018-04-27T09:35:02.268Z,30.40
2018-04-27T09:37:37.511Z,30.00
2018-04-27T09:40:12.942Z,29.50
2018-04-27T09:42:48.093Z,27.00
2018-04-27T09:45:24.036Z,28.80
2018-04-27T09:48:00.437Z,28.90
2018-04-27T09:50:35.733Z,30.00
2018-04-27T09:53:10.938Z,30.00
2018-04-27T09:55:46.228Z,28.90
2018-04-27T09:58:21.435Z,29.20
2018-04-27T10:00:56.687Z,28.80
2018-04-27T10:03:31.932Z,29.40
2018-04-27T10:06:07.294Z,29.40
2018-04-27T10:08:42.350Z,28.00
2018-04-27T10:11:17.777Z,26.50
2018-04-27T10:13:53.120Z,26.60
2018-04-27T10:16:28.407Z,26.30
2018-04-27T10:19:04.304Z,26.90
2018-04-27T10:21:39.582Z,26.90
2018-04-27T10:24:15.560Z,26.30
2018-04-27T10:26:51.173Z,25.80
2018-04-27T10:29:26.493Z,25.80
2018-04-27T10:32:02.609Z,26.50
2018-04-27T10:34:38.666Z,26.40
2018-04-27T10:37:13.811Z,26.40
2018-04-27T10:39:49.073Z,26.80
2018-04-27T10:42:24.999Z,27.50
2018-04-27T10:45:00.342Z,27.30
2018-04-27T10:47:36.437Z,25.30
2018-04-27T10:50:11.669Z,25.30
2018-04-27T10:52:47.119Z,24.20
2018-04-27T10:55:22.245Z,23.90
2018-04-27T10:57:58.280Z,26.40
2018-04-27T11:00:33.550Z,26.20
2018-04-27T11:03:08.952Z,23.80
2018-04-27T11:05:44.861Z,22.60
2018-04-27T11:08:22.384Z,22.50
2018-04-27T11:10:59.036Z,23.30
2018-04-27T11:13:45.115Z,25.00
2018-04-27T11:16:24.664Z,25.60
2018-04-27T11:19:04.229Z,24.00
2018-04-27T11:21:43.063Z,23.50
2018-04-27T11:24:20.923Z,23.50
2018-04-27T11:26:56.493Z,24.20
2018-04-27T11:29:31.939Z,24.20
2018-04-27T11:32:08.032Z,24.90
2018-04-27T11:34:43.452Z,24.80
2018-04-27T11:37:19.504Z,23.70
2018-04-27T11:39:54.854Z,23.70
2018-04-27T11:42:30.205Z,24.70
2018-04-27T11:45:05.600Z,25.20
2018-04-27T11:47:40.974Z,25.30
2018-04-27T11:50:16.135Z,25.30
2018-04-27T11:52:51.753Z,26.20
2018-04-27T11:55:26.837Z,26.10
2018-04-27T11:58:02.079Z,25.40
2018-04-27T12:00:37.357Z,25.40
2018-04-27T12:03:12.737Z,26.60
2018-04-27T12:06:02.990Z,26.30
2018-04-27T12:08:42.455Z,27.40
2018-04-27T12:11:25.356Z,26.20
2018-04-27T12:14:00.606Z,26.30
2018-04-27T12:16:36.696Z,26.30
2018-04-27T12:19:13.127Z,25.60
2018-04-27T12:21:48.483Z,26.10
2018-04-27T12:24:23.804Z,26.60
2018-04-27T12:26:59.776Z,26.80
2018-04-27T12:29:40.384Z,26.80
2018-04-27T12:32:15.989Z,26.60
2018-04-27T12:34:51.535Z,26.90
2018-04-27T12:37:26.874Z,27.50
2018-04-27T12:40:02.326Z,27.00
2018-04-27T12:42:37.680Z,26.90
2018-04-27T12:45:13.630Z,26.20
2018-04-27T12:47:50.162Z,26.20
2018-04-27T12:50:26.351Z,26.90
2018-04-27T12:53:01.645Z,26.70
2018-04-27T12:55:38.165Z,26.60
2018-04-27T12:58:15.263Z,26.80
2018-04-27T13:00:54.179Z,26.80
2018-04-27T13:03:29.440Z,26.10
2018-04-27T13:06:06.273Z,25.10
2018-04-27T13:08:42.803Z,25.20
2018-04-27T13:11:19.212Z,25.20
2018-04-27T13:13:56.035Z,26.10
2018-04-27T13:16:32.030Z,25.30
2018-04-27T13:19:07.512Z,25.70
2018-04-27T13:21:43.854Z,27.00
2018-04-27T13:24:19.311Z,26.00
2018-04-27T13:26:57.619Z,26.50
2018-04-27T13:29:32.771Z,26.00
2018-04-27T13:32:08.052Z,25.20
2018-04-27T13:34:43.448Z,25.20
2018-04-27T13:37:18.492Z,25.30
2018-04-27T13:39:54.544Z,25.40
2018-04-27T13:42:30.168Z,25.40
2018-04-27T13:45:05.363Z,25.90
2018-04-27T13:47:40.760Z,25.60
2018-04-27T13:50:15.955Z,25.90
2018-04-27T13:52:51.043Z,27.00
2018-04-27T13:55:26.311Z,26.50
2018-04-27T13:58:01.713Z,26.80
2018-04-27T14:00:37.762Z,26.40
2018-04-27T14:03:13.683Z,26.40
2018-04-27T14:05:48.887Z,26.30
2018-04-27T14:08:24.309Z,27.40
2018-04-27T14:10:59.856Z,26.30
2018-04-27T14:13:34.917Z,27.50
2018-04-27T14:16:10.164Z,26.50
2018-04-27T14:18:45.514Z,26.20
2018-04-27T14:21:20.968Z,26.70
2018-04-27T14:23:56.404Z,26.40
2018-04-27T14:26:31.600Z,26.50
2018-04-27T14:29:06.869Z,27.00
2018-04-27T14:31:42.098Z,26.00
2018-04-27T14:34:17.373Z,26.30
2018-04-27T14:36:52.766Z,25.50
2018-04-27T14:39:28.072Z,27.00
2018-04-27T14:42:03.449Z,26.50
2018-04-27T14:44:39.405Z,26.70
2018-04-27T14:47:14.591Z,26.70
2018-04-27T14:49:49.927Z,25.70
2018-04-27T14:52:26.634Z,26.70
2018-04-27T14:55:01.981Z,26.20
2018-04-27T14:57:38.303Z,26.40
2018-04-27T15:00:13.384Z,26.60
2018-04-27T15:02:50.385Z,26.80
2018-04-27T15:05:25.480Z,26.90
2018-04-27T15:08:00.662Z,26.60
2018-04-27T15:10:35.807Z,26.90
2018-04-27T15:13:11.068Z,26.20
2018-04-27T15:15:46.475Z,27.50
2018-04-27T15:18:22.520Z,26.70
2018-04-27T15:20:58.358Z,26.30
2018-04-27T15:23:33.551Z,26.30
2018-04-27T15:26:09.513Z,25.90
2018-04-27T15:28:44.855Z,25.80
2018-04-27T15:31:20.226Z,26.10
2018-04-27T15:33:55.912Z,26.40
2018-04-27T15:36:31.083Z,26.50
2018-04-27T15:39:06.409Z,27.10
2018-04-27T15:41:41.766Z,26.50
2018-04-27T15:44:17.098Z,26.20
2018-04-27T15:46:52.261Z,26.90
2018-04-27T15:49:27.475Z,27.00
2018-04-27T15:52:02.785Z,27.20
2018-04-27T15:54:38.041Z,25.80
2018-04-27T15:57:13.332Z,27.30
2018-04-27T15:59:48.553Z,26.70
2018-04-27T16:02:23.884Z,25.70
2018-04-27T16:04:59.144Z,26.30
2018-04-27T16:07:34.483Z,26.40
2018-04-27T16:10:09.824Z,25.80
2018-04-27T16:12:44.980Z,26.20
2018-04-27T16:15:20.215Z,26.50
2018-04-27T16:17:56.725Z,25.10
2018-04-27T16:20:32.792Z,25.80
2018-04-27T16:23:07.958Z,25.70
2018-04-27T16:25:43.080Z,26.10
2018-04-27T16:28:18.307Z,25.60
2018-04-27T16:30:53.674Z,25.80
2018-04-27T16:33:28.915Z,26.00
2018-04-27T16:36:04.329Z,26.60
2018-04-27T16:38:39.495Z,26.60
2018-04-27T16:41:14.741Z,26.80
2018-04-27T16:43:49.983Z,27.40
2018-04-27T16:46:25.240Z,27.50
2018-04-27T16:49:00.570Z,27.80
2018-04-27T16:51:35.901Z,28.10
2018-04-27T16:54:11.228Z,26.80
2018-04-27T16:56:46.495Z,27.20
2018-04-27T16:59:21.825Z,27.40
2018-04-27T17:01:57.203Z,27.70
2018-04-27T17:04:32.411Z,27.10
2018-04-27T17:07:07.755Z,27.40
2018-04-27T17:09:43.051Z,26.90
2018-04-27T17:12:18.382Z,26.50
2018-04-27T17:14:53.599Z,27.10
2018-04-27T17:17:28.923Z,26.60
2018-04-27T17:20:05.092Z,26.10
2018-04-27T17:22:41.224Z,26.20
2018-04-27T17:25:16.345Z,26.20
2018-04-27T17:27:51.544Z,25.60
2018-04-27T17:30:26.750Z,25.10
2018-04-27T17:33:02.000Z,25.00
2018-04-27T17:35:38.070Z,24.80
2018-04-27T17:38:17.538Z,24.80
2018-04-27T17:40:52.683Z,25.30
2018-04-27T17:43:28.103Z,25.50
2018-04-27T17:46:03.329Z,25.60
2018-04-27T17:48:38.707Z,25.80
2018-04-27T17:51:14.003Z,26.30
2018-04-27T17:53:49.591Z,27.00
2018-04-27T17:56:24.982Z,26.10
2018-04-27T17:59:00.186Z,26.50
2018-04-27T18:01:35.538Z,26.10
2018-04-27T18:04:10.872Z,26.00
2018-04-27T18:06:46.138Z,25.60
2018-04-27T18:09:21.599Z,25.40
2018-04-27T18:11:56.990Z,26.00
2018-04-27T18:14:32.120Z,25.90
2018-04-27T18:17:07.417Z,26.30
2018-04-27T18:19:43.295Z,26.70
2018-04-27T18:22:19.246Z,27.30
2018-04-27T18:24:54.560Z,27.30
2018-04-27T18:27:29.939Z,27.40
2018-04-27T18:30:05.036Z,27.50
2018-04-27T18:32:40.404Z,28.20
2018-04-27T18:35:15.521Z,28.10
2018-04-27T18:37:50.786Z,28.30
2018-04-27T18:40:27.049Z,30.90
2018-04-27T18:43:03.189Z,33.30
2018-04-27T18:45:38.372Z,33.30
2018-04-27T18:48:17.883Z,32.60
2018-04-27T18:50:55.282Z,34.80
2018-04-27T18:53:32.634Z,34.90
2018-04-27T18:56:07.908Z,36.30
2018-04-27T18:58:43.204Z,36.10
2018-04-27T19:01:18.452Z,36.90
2018-04-27T19:03:54.318Z,37.50
2018-04-27T19:06:29.581Z,37.20
2018-04-27T19:09:04.925Z,37.20
2018-04-27T19:11:40.911Z,38.40
2018-04-27T19:14:16.047Z,38.10
2018-04-27T19:16:51.853Z,40.10
2018-04-27T19:19:27.039Z,40.10
2018-04-27T19:22:02.368Z,40.00
2018-04-27T19:24:46.572Z,40.60
2018-04-27T19:27:21.789Z,39.90
2018-04-27T19:29:59.194Z,39.80
2018-04-27T19:32:35.049Z,39.30
2018-04-27T19:35:11.071Z,41.00
2018-04-27T19:37:46.358Z,41.10
2018-04-27T19:40:21.853Z,40.60
2018-04-27T19:42:57.037Z,40.60
2018-04-27T19:45:32.271Z,42.30
2018-04-27T19:48:07.600Z,43.50
2018-04-27T19:50:42.964Z,43.50
2018-04-27T19:53:18.309Z,42.60
2018-04-27T19:55:53.748Z,42.20
2018-04-27T19:58:29.093Z,43.20
2018-04-27T20:01:04.429Z,43.70
2018-04-27T20:03:39.944Z,44.20
2018-04-27T20:06:15.188Z,44.90
2018-04-27T20:08:50.434Z,45.90
2018-04-27T20:11:25.808Z,46.50
2018-04-27T20:14:01.098Z,46.50
2018-04-27T20:16:37.912Z,47.10
2018-04-27T20:19:13.163Z,47.10
2018-04-27T20:21:48.499Z,47.90
2018-04-27T20:24:24.107Z,48.00
2018-04-27T20:26:59.186Z,47.90
2018-04-27T20:29:34.658Z,47.30
2018-04-27T20:32:09.739Z,46.80
2018-04-27T20:34:44.996Z,48.10
2018-04-27T20:37:20.330Z,48.00
2018-04-27T20:39:55.535Z,47.80
2018-04-27T20:42:30.787Z,49.40
2018-04-27T20:45:06.691Z,50.10
2018-04-27T20:47:43.355Z,50.70
2018-04-27T20:50:26.150Z,50.90
2018-04-27T20:53:02.940Z,50.80
2018-04-27T20:55:38.244Z,50.60
2018-04-27T20:58:13.487Z,50.20
2018-04-27T21:00:48.595Z,51.40
2018-04-27T21:03:23.710Z,52.00
2018-04-27T21:05:58.912Z,53.20
2018-04-27T21:08:34.165Z,54.10
2018-04-27T21:11:09.602Z,53.50
2018-04-27T21:13:44.960Z,52.40
2018-04-27T21:16:20.766Z,53.50
2018-04-27T21:18:57.027Z,54.30
2018-04-27T21:21:32.187Z,52.90
2018-04-27T21:24:14.520Z,54.80
2018-04-27T21:26:49.615Z,55.40
2018-04-27T21:29:27.953Z,55.70
2018-04-27T21:32:03.106Z,56.20
2018-04-27T21:34:43.311Z,55.90
2018-04-27T21:37:21.197Z,55.70
2018-04-27T21:39:59.941Z,57.10
2018-04-27T21:42:40.361Z,57.10
2018-04-27T21:45:16.368Z,58.30
2018-04-27T21:47:55.738Z,58.00
2018-04-27T21:50:31.122Z,58.30
2018-04-27T21:53:06.557Z,57.30
2018-04-27T21:55:41.840Z,57.30
2018-04-27T21:58:27.932Z,56.80
2018-04-27T22:01:03.408Z,56.30
2018-04-27T22:03:38.567Z,56.50
2018-04-27T22:06:25.841Z,56.30
2018-04-27T22:09:10.214Z,57.10
2018-04-27T22:11:50.838Z,57.80
2018-04-27T22:14:32.417Z,58.00
2018-04-27T22:17:13.550Z,58.80
2018-04-27T22:19:49.631Z,58.90
2018-04-27T22:22:24.989Z,59.60
2018-04-27T22:25:06.010Z,60.70
2018-04-27T22:27:41.056Z,61.60
2018-04-27T22:30:38.375Z,61.70
2018-04-27T22:33:21.239Z,61.10
2018-04-27T22:36:05.190Z,61.00
2018-04-27T22:52:35.291Z,64.00
2018-04-27T22:55:12.189Z,64.10
2018-04-27T22:57:58.127Z,63.80
2018-04-27T23:00:38.608Z,64.20
2018-04-27T23:03:28.751Z,64.40
2018-04-27T23:06:05.563Z,64.70
2018-04-27T23:08:56.431Z,64.70
2018-04-27T23:11:33.177Z,64.60
2018-04-27T23:27:37.215Z,56.90
2018-04-27T23:30:13.214Z,55.60
2018-04-27T23:32:49.258Z,54.80
2018-04-27T23:35:25.325Z,54.30
2018-04-27T23:38:03.988Z,54.10
2018-04-27T23:40:39.117Z,54.10
2018-04-27T23:43:14.371Z,54.10
2018-04-27T23:45:49.604Z,53.90
2018-04-27T23:48:24.766Z,53.90
2018-04-27T23:51:00.759Z,54.50
2018-04-27T23:53:37.633Z,53.90
2018-04-27T23:56:12.919Z,54.30
2018-04-27T23:58:48.049Z,54.70
